Time;durP1;ratioP1;P1;durP2;ratioP2;P2;SDS_P1;SDS_P2;PMS_P1;PMS_P2;Temp;Humidity;BMP_temperature;BMP_pressure;BME280_temperature;BME280_humidity;BME280_pressure;Samples;Min_cycle;Max_cycle;Signal;HPM_P1;HPM_P2
2023/03/27 00:02:08;;;;;;;71.28;64.85;;;6.40;99.90;;;;;;5288222;28;20478;-64
2023/03/27 00:04:40;;;;;;;64.63;59.42;;;6.40;99.90;;;;;;5285420;28;20030;-64
2023/03/27 00:07:11;;;;;;;65.35;59.45;;;6.50;99.90;;;;;;5267499;28;20116;-64
2023/03/27 00:09:43;;;;;;;64.05;58.90;;;6.40;99.90;;;;;;5267477;28;20028;-64
2023/03/27 00:12:13;;;;;;;66.07;60.63;;;6.50;99.90;;;;;;5267500;28;20020;-64
2023/03/27 00:14:45;;;;;;;69.55;63.50;;;6.30;99.90;;;;;;5267383;28;20486;-64
2023/03/27 00:17:16;;;;;;;73.63;66.68;;;6.30;99.90;;;;;;5274201;28;20639;-64
2023/03/27 00:19:47;;;;;;;73.10;66.40;;;6.40;99.90;;;;;;5288534;28;20036;-64
2023/03/27 00:22:18;;;;;;;70.35;63.72;;;6.20;99.90;;;;;;5288690;28;20540;-64
2023/03/27 00:24:49;;;;;;;74.80;67.55;;;6.50;99.90;;;;;;5289819;28;20081;-64
2023/03/27 00:27:20;;;;;;;75.85;68.45;;;6.50;99.90;;;;;;5292304;28;20050;-64
2023/03/27 00:29:52;;;;;;;70.45;63.42;;;6.10;99.90;;;;;;5292390;28;20531;-64
2023/03/27 00:32:23;;;;;;;65.55;59.83;;;6.40;99.90;;;;;;5292097;28;20122;-64
2023/03/27 00:34:54;;;;;;;67.03;60.83;;;6.50;99.90;;;;;;5292109;28;20114;-62
2023/03/27 00:37:25;;;;;;;69.82;63.17;;;6.50;99.90;;;;;;5292311;28;20027;-64
2023/03/27 00:39:56;;;;;;;64.70;59.17;;;6.40;99.90;;;;;;5292556;28;20479;-64
2023/03/27 00:42:27;;;;;;;64.80;59.03;;;6.10;99.90;;;;;;5292007;28;20082;-64
2023/03/27 00:44:58;;;;;;;63.63;57.80;;;6.10;99.90;;;;;;5292074;28;20046;-65
2023/03/27 00:47:32;;;;;;;66.55;60.38;;;6.20;99.90;;;;;;5291840;28;20037;-64
2023/03/27 00:50:16;;;;;;;70.47;63.55;;;6.30;99.90;;;;;;5291934;28;20028;-64
2023/03/27 00:52:57;;;;;;;66.68;60.67;;;6.10;99.90;;;;;;5291923;28;20031;-64
2023/03/27 00:55:32;;;;;;;64.45;58.72;;;6.30;99.90;;;;;;5291819;28;20030;-64
2023/03/27 00:58:08;;;;;;;88.78;76.25;;;6.10;99.90;;;;;;5291818;28;20102;-64
2023/03/27 01:00:39;;;;;;;68.70;62.35;;;6.30;99.90;;;;;;5291600;28;20115;-62
2023/03/27 01:03:10;;;;;;;62.10;56.47;;;5.70;99.90;;;;;;5291526;28;20471;-64
2023/03/27 01:05:42;;;;;;;65.90;59.75;;;5.80;99.90;;;;;;5291604;28;20027;-64
2023/03/27 01:08:14;;;;;;;63.83;58.17;;;6.00;99.90;;;;;;5291419;28;20032;-64
2023/03/27 01:10:55;;;;;;;64.07;58.30;;;6.00;99.90;;;;;;5291372;28;20425;-64
2023/03/27 01:13:54;;;;;;;61.80;56.13;;;5.90;99.90;;;;;;5291350;28;20026;-64
2023/03/27 01:16:39;;;;;;;64.72;58.78;;;6.20;99.90;;;;;;5291263;28;20543;-64
2023/03/27 01:19:13;;;;;;;66.85;60.85;;;5.90;99.90;;;;;;5291322;28;20426;-64
2023/03/27 01:21:50;;;;;;;66.75;60.55;;;6.20;99.90;;;;;;5291201;28;20039;-64
2023/03/27 01:24:59;;;;;;;67.97;61.78;;;5.80;99.90;;;;;;5273098;28;20463;-64
2023/03/27 01:27:40;;;;;;;63.45;57.25;;;6.10;99.90;;;;;;5291164;28;20497;-65
2023/03/27 01:30:19;;;;;;;;;;;5.90;99.90;;;;;;5291502;28;20031;-64
2023/03/27 01:33:03;;;;;;;67.25;60.35;;;5.80;99.90;;;;;;5291176;28;19920;-62
2023/03/27 01:35:59;;;;;;;67.63;60.72;;;5.90;99.90;;;;;;5291045;28;20436;-64
2023/03/27 01:39:17;;;;;;;65.10;58.17;;;5.70;99.90;;;;;;5291414;28;20028;-64
2023/03/27 01:42:14;;;;;;;63.42;57.33;;;5.80;99.90;;;;;;5268717;28;20040;-64
2023/03/27 01:45:05;;;;;;;68.82;62.58;;;5.80;99.90;;;;;;5291105;28;20451;-64
2023/03/27 01:47:59;;;;;;;63.92;57.95;;;5.90;99.90;;;;;;5290921;28;20469;-63
2023/03/27 01:50:37;;;;;;;65.03;59.00;;;5.60;99.90;;;;;;5290925;28;20047;-64
2023/03/27 01:53:41;;;;;;;79.20;68.93;;;5.60;99.90;;;;;;5290664;28;20536;-64
2023/03/27 01:56:26;;;;;;;68.32;61.65;;;5.60;99.90;;;;;;5287109;28;20547;-64
2023/03/27 01:59:03;;;;;;;67.60;61.10;;;5.60;99.90;;;;;;5290717;28;20494;-64
2023/03/27 02:01:38;;;;;;;66.00;59.35;;;5.70;99.90;;;;;;5290356;28;20028;-64
2023/03/27 02:04:15;;;;;;;65.07;58.78;;;5.80;99.90;;;;;;5290469;28;20042;-64
2023/03/27 02:06:57;;;;;;;67.50;61.47;;;5.80;99.90;;;;;;5290447;28;20026;-64
2023/03/27 02:09:40;;;;;;;68.22;61.38;;;5.60;99.90;;;;;;5290442;28;20471;-64
2023/03/27 02:12:16;;;;;;;64.53;58.42;;;5.70;99.90;;;;;;5290389;28;20015;-64
2023/03/27 02:14:59;;;;;;;66.28;59.88;;;5.80;99.90;;;;;;5290323;28;20471;-65
2023/03/27 02:17:32;;;;;;;73.38;65.97;;;5.80;99.90;;;;;;5290205;28;20348;-64
2023/03/27 02:20:13;;;;;;;70.97;64.13;;;5.80;99.90;;;;;;5290231;28;20059;-64
2023/03/27 02:22:49;;;;;;;68.35;61.65;;;5.60;99.90;;;;;;5289831;28;20043;-65
2023/03/27 02:25:38;;;;;;;66.93;60.20;;;5.80;99.90;;;;;;5290019;28;20012;-64
2023/03/27 02:29:00;;;;;;;75.55;67.95;;;5.80;99.90;;;;;;5290081;28;20366;-64
2023/03/27 02:31:44;;;;;;;75.60;67.55;;;5.70;99.90;;;;;;5229732;28;20040;-64
2023/03/27 02:34:42;;;;;;;76.82;69.00;;;5.70;99.90;;;;;;5260448;28;20034;-64
2023/03/27 02:37:36;;;;;;;69.55;62.22;;;6.00;99.90;;;;;;5289869;28;20034;-65
2023/03/27 02:40:36;;;;;;;73.32;66.07;;;6.00;99.90;;;;;;5274091;28;20051;-64
2023/03/27 02:43:10;;;;;;;72.27;64.67;;;6.00;99.90;;;;;;5289586;28;20036;-65
2023/03/27 02:46:06;;;;;;;74.00;66.60;;;5.90;99.90;;;;;;5289695;28;20015;-65
2023/03/27 02:48:45;;;;;;;74.70;67.28;;;6.00;99.90;;;;;;5249789;28;20053;-64
2023/03/27 02:51:33;;;;;;;73.25;65.75;;;6.00;99.90;;;;;;5289714;28;20031;-64
2023/03/27 02:54:27;;;;;;;71.90;64.90;;;6.10;99.90;;;;;;5289683;28;20030;-64
2023/03/27 02:57:04;;;;;;;70.93;63.95;;;6.10;99.90;;;;;;5289777;28;20448;-64
2023/03/27 02:59:41;;;;;;;68.82;62.28;;;6.20;99.90;;;;;;5289739;28;20027;-64
2023/03/27 03:02:19;;;;;;;72.35;65.63;;;6.40;99.90;;;;;;5289283;28;20050;-65
2023/03/27 03:05:04;;;;;;;72.75;65.50;;;6.30;99.90;;;;;;5289392;28;20027;-64
2023/03/27 03:07:37;;;;;;;69.55;62.25;;;6.20;99.90;;;;;;5289398;28;20035;-64
2023/03/27 03:10:11;;;;;;;69.25;62.42;;;6.20;99.90;;;;;;5289223;28;20081;-64
2023/03/27 03:12:42;;;;;;;69.85;62.63;;;6.30;99.90;;;;;;5289393;28;20467;-64
2023/03/27 03:15:13;;;;;;;76.55;69.10;;;6.60;99.90;;;;;;5289389;28;20047;-65
2023/03/27 03:17:44;;;;;;;74.40;66.72;;;6.90;99.90;;;;;;5288990;28;20036;-64
2023/03/27 03:20:15;;;;;;;75.30;67.95;;;7.00;99.90;;;;;;5289109;28;20076;-64
2023/03/27 03:22:46;;;;;;;75.93;68.32;;;7.10;99.90;;;;;;5288978;28;20513;-64
2023/03/27 03:25:18;;;;;;;74.03;66.60;;;7.10;99.90;;;;;;5289124;28;20012;-64
2023/03/27 03:27:49;;;;;;;76.70;69.20;;;7.00;99.90;;;;;;5289167;28;20020;-64
2023/03/27 03:30:20;;;;;;;68.78;61.65;;;6.90;99.90;;;;;;5286511;28;20081;-64
2023/03/27 03:32:51;;;;;;;68.60;62.13;;;6.90;99.90;;;;;;5286632;28;20054;-63
2023/03/27 03:35:23;;;;;;;71.50;64.35;;;6.90;99.90;;;;;;5288749;28;20028;-64
2023/03/27 03:37:56;;;;;;;70.20;62.78;;;6.80;99.90;;;;;;5288771;28;20070;-64
2023/03/27 03:40:27;;;;;;;71.53;64.22;;;6.80;99.90;;;;;;5288744;28;20131;-64
2023/03/27 03:42:58;;;;;;;78.57;68.10;;;7.00;99.90;;;;;;5288719;28;20103;-63
2023/03/27 03:45:28;;;;;;;77.57;69.35;;;7.00;99.90;;;;;;5288954;28;20023;-64
2023/03/27 03:47:59;;;;;;;91.30;70.88;;;7.00;99.90;;;;;;5288809;28;20035;-64
2023/03/27 03:50:30;;;;;;;72.07;64.72;;;7.00;99.90;;;;;;5288629;28;20089;-64
2023/03/27 03:53:01;;;;;;;72.50;65.03;;;6.90;99.90;;;;;;5288824;28;20036;-65
2023/03/27 03:55:32;;;;;;;76.40;68.15;;;7.10;99.90;;;;;;5288337;28;20024;-65
2023/03/27 03:58:03;;;;;;;72.97;65.20;;;7.00;99.90;;;;;;5287850;28;20070;-65
2023/03/27 04:00:37;;;;;;;69.90;63.03;;;7.20;99.90;;;;;;5285089;28;20475;-65
2023/03/27 04:03:09;;;;;;;68.75;61.45;;;7.20;99.90;;;;;;5271738;28;20046;-64
2023/03/27 04:05:41;;;;;;;74.78;66.70;;;7.20;99.90;;;;;;5271882;28;20024;-65
2023/03/27 04:08:12;;;;;;;76.57;68.68;;;7.20;99.90;;;;;;5271867;28;20459;-64
2023/03/27 04:10:43;;;;;;;74.70;66.78;;;7.30;99.90;;;;;;5271562;28;20077;-63
2023/03/27 04:13:13;;;;;;;77.00;68.65;;;7.20;99.90;;;;;;5271559;28;20031;-64
2023/03/27 04:15:44;;;;;;;85.20;72.13;;;7.30;99.90;;;;;;5271284;28;20024;-65
2023/03/27 04:18:18;;;;;;;89.25;79.65;;;7.20;99.90;;;;;;5271143;28;20024;-65
2023/03/27 04:20:49;;;;;;;153.20;118.78;;;6.90;99.90;;;;;;5271536;28;20024;-64
2023/03/27 04:23:19;;;;;;;127.53;106.22;;;7.20;99.90;;;;;;5271362;28;20114;-65
2023/03/27 04:25:51;;;;;;;84.75;72.65;;;7.30;99.90;;;;;;5271377;28;20024;-63
2023/03/27 04:28:22;;;;;;;93.70;83.00;;;7.30;99.90;;;;;;5271307;28;20050;-64
2023/03/27 04:30:52;;;;;;;96.78;85.22;;;7.20;99.90;;;;;;5271035;28;20024;-64
2023/03/27 04:33:23;;;;;;;90.30;80.63;;;7.40;99.90;;;;;;5271456;28;20577;-65
2023/03/27 04:35:54;;;;;;;84.95;75.85;;;7.50;99.90;;;;;;5271167;28;20024;-65
2023/03/27 04:38:26;;;;;;;81.80;72.93;;;7.50;99.90;;;;;;5271136;28;20031;-65
2023/03/27 04:40:57;;;;;;;78.85;70.50;;;7.80;99.90;;;;;;5271057;28;20027;-62
2023/03/27 04:43:28;;;;;;;78.10;69.90;;;7.80;99.90;;;;;;5270932;28;20040;-63
2023/03/27 04:45:59;;;;;;;75.05;67.10;;;7.70;99.90;;;;;;5270736;28;20099;-63
2023/03/27 04:48:30;;;;;;;78.05;69.72;;;7.70;99.90;;;;;;5270893;28;20028;-62
2023/03/27 04:51:01;;;;;;;82.93;74.22;;;7.90;99.90;;;;;;5270794;28;20048;-65
2023/03/27 04:53:34;;;;;;;78.72;69.18;;;8.10;99.90;;;;;;5252838;28;20475;-64
2023/03/27 04:56:06;;;;;;;80.68;69.85;;;8.50;99.90;;;;;;5270791;28;20016;-65
2023/03/27 04:58:39;;;;;;;80.30;68.18;;;8.80;99.90;;;;;;5270749;28;20085;-65
2023/03/27 05:01:11;;;;;;;76.68;68.38;;;8.90;99.90;;;;;;5270626;28;20484;-65
2023/03/27 05:03:42;;;;;;;78.78;70.28;;;9.00;99.90;;;;;;5270537;28;20071;-64
2023/03/27 05:06:13;;;;;;;92.07;81.30;;;9.20;99.90;;;;;;5270904;28;20052;-64
2023/03/27 05:08:43;;;;;;;102.53;89.30;;;9.00;99.90;;;;;;5270736;28;20042;-65
2023/03/27 05:11:14;;;;;;;83.22;72.82;;;9.00;99.90;;;;;;5269972;28;20471;-62
2023/03/27 05:13:45;;;;;;;86.38;74.57;;;9.30;99.90;;;;;;5270571;28;20024;-65
2023/03/27 05:16:17;;;;;;;76.03;67.78;;;9.40;99.90;;;;;;5270278;28;20028;-62
2023/03/27 05:18:48;;;;;;;75.10;66.82;;;9.60;99.90;;;;;;5270482;28;20096;-65
2023/03/27 05:21:19;;;;;;;77.10;66.05;;;9.70;99.90;;;;;;5270249;28;20036;-65
2023/03/27 05:23:50;;;;;;;80.88;69.13;;;10.00;99.90;;;;;;5270145;28;20040;-65
2023/03/27 05:26:21;;;;;;;74.95;65.60;;;10.00;99.90;;;;;;5270239;28;20483;-64
2023/03/27 05:28:54;;;;;;;67.07;59.97;;;10.30;99.90;;;;;;5270065;28;20032;-65
2023/03/27 05:31:26;;;;;;;63.13;56.25;;;10.50;99.90;;;;;;5269827;28;20040;-65
2023/03/27 05:33:57;;;;;;;65.15;56.33;;;10.60;99.90;;;;;;5269976;28;20028;-65
2023/03/27 05:36:29;;;;;;;61.08;54.65;;;10.60;99.90;;;;;;5269874;28;20403;-65
2023/03/27 05:39:00;;;;;;;57.67;51.47;;;10.90;99.90;;;;;;5269908;28;20471;-65
2023/03/27 05:41:31;;;;;;;56.92;50.88;;;11.20;99.90;;;;;;5269793;28;20020;-64
2023/03/27 05:44:02;;;;;;;53.80;48.28;;;11.40;99.90;;;;;;5269715;28;20031;-65
2023/03/27 05:46:33;;;;;;;68.80;62.45;;;11.50;99.90;;;;;;5269499;28;20016;-65
2023/03/27 05:49:04;;;;;;;55.10;49.60;;;11.70;99.90;;;;;;5269775;28;20058;-65
2023/03/27 05:51:35;;;;;;;53.15;48.22;;;11.90;99.90;;;;;;5269660;28;20103;-66
2023/03/27 05:54:06;;;;;;;49.40;44.97;;;12.20;99.90;;;;;;5269512;28;20103;-62
2023/03/27 05:56:36;;;;;;;54.35;49.63;;;12.50;99.90;;;;;;5269491;28;20028;-65
2023/03/27 05:59:07;;;;;;;50.30;46.33;;;12.90;99.90;;;;;;5269396;28;20400;-66
2023/03/27 06:01:39;;;;;;;49.40;45.50;;;13.10;99.90;;;;;;5269396;28;20119;-66
2023/03/27 06:04:11;;;;;;;45.10;41.50;;;13.30;99.90;;;;;;5269429;28;20039;-65
2023/03/27 06:06:42;;;;;;;42.50;39.17;;;13.30;99.90;;;;;;5269307;28;20376;-65
2023/03/27 06:09:12;;;;;;;39.78;36.63;;;13.70;99.90;;;;;;5269461;28;20073;-66
2023/03/27 06:11:43;;;;;;;52.90;49.30;;;13.70;99.90;;;;;;5269308;28;20074;-65
2023/03/27 06:14:14;;;;;;;39.60;36.67;;;13.80;99.90;;;;;;5269161;28;20406;-65
2023/03/27 06:16:45;;;;;;;41.30;38.28;;;13.90;99.90;;;;;;5268983;28;20037;-65
2023/03/27 06:19:16;;;;;;;51.15;47.65;;;14.10;99.90;;;;;;5269256;28;20032;-65
2023/03/27 06:21:47;;;;;;;113.07;106.20;;;14.20;99.90;;;;;;5268527;28;20040;-65
2023/03/27 06:24:18;;;;;;;37.08;34.25;;;14.10;99.90;;;;;;5269101;28;20028;-63
2023/03/27 06:26:49;;;;;;;37.03;34.45;;;14.30;99.90;;;;;;5269116;28;20066;-65
2023/03/27 06:29:20;;;;;;;33.42;31.15;;;14.40;99.90;;;;;;5269025;28;20020;-65
2023/03/27 06:31:51;;;;;;;38.42;35.72;;;14.80;99.90;;;;;;5268615;28;20526;-64
2023/03/27 06:34:22;;;;;;;35.55;33.15;;;14.90;99.90;;;;;;5269029;28;20467;-65
2023/03/27 06:36:53;;;;;;;34.03;31.77;;;14.90;99.90;;;;;;5268744;28;20468;-65
2023/03/27 06:39:26;;;;;;;31.98;29.40;;;15.00;99.90;;;;;;5268875;28;20048;-65
2023/03/27 06:41:57;;;;;;;32.83;30.52;;;15.10;99.90;;;;;;5250403;28;20036;-65
2023/03/27 06:44:27;;;;;;;44.63;41.72;;;15.20;99.90;;;;;;5268664;28;20107;-65
2023/03/27 06:46:58;;;;;;;33.72;31.27;;;15.30;99.90;;;;;;5268510;28;20009;-65
2023/03/27 06:49:29;;;;;;;36.15;33.72;;;15.40;99.90;;;;;;5268548;28;20035;-65
2023/03/27 06:52:00;;;;;;;30.20;28.27;;;15.40;99.90;;;;;;5268537;28;20014;-62
2023/03/27 06:54:31;;;;;;;25.50;23.80;;;15.60;99.90;;;;;;5268557;28;20020;-65
2023/03/27 06:57:02;;;;;;;29.58;27.67;;;15.70;99.90;;;;;;5268360;28;20028;-65
2023/03/27 06:59:33;;;;;;;29.27;27.27;;;15.70;99.90;;;;;;5268269;28;20471;-65
2023/03/27 07:02:03;;;;;;;38.33;35.83;;;15.70;99.90;;;;;;5267957;28;20601;-65
2023/03/27 07:04:34;;;;;;;32.00;29.85;;;15.60;99.90;;;;;;5268214;28;20036;-65
2023/03/27 07:07:05;;;;;;;41.80;39.22;;;15.80;99.90;;;;;;5268247;28;20103;-62
2023/03/27 07:09:37;;;;;;;29.23;27.30;;;15.80;99.90;;;;;;5268090;28;20040;-66
2023/03/27 07:12:08;;;;;;;27.65;25.75;;;15.90;99.90;;;;;;5268207;28;20077;-65
2023/03/27 07:14:39;;;;;;;30.40;28.25;;;16.00;99.90;;;;;;5267788;28;20020;-62
2023/03/27 07:17:11;;;;;;;23.85;22.15;;;16.00;99.90;;;;;;5267859;28;20045;-66
2023/03/27 07:19:42;;;;;;;59.20;55.30;;;16.30;99.90;;;;;;5267961;28;20077;-63
2023/03/27 07:22:18;;;;;;;31.65;29.48;;;16.10;99.90;;;;;;5267894;28;20074;-67
2023/03/27 07:24:52;;;;;;;58.58;54.85;;;16.20;99.90;;;;;;5249905;28;20027;-66
2023/03/27 07:27:28;;;;;;;42.47;39.63;;;16.00;99.90;;;;;;5268058;28;20032;-63
2023/03/27 07:30:06;;;;;;;23.20;21.38;;;16.00;99.90;;;;;;5268213;28;20032;-62
2023/03/27 07:32:50;;;;;;;25.50;23.65;;;16.10;99.90;;;;;;5267897;28;20060;-66
2023/03/27 07:35:37;;;;;;;28.63;26.52;;;16.30;99.90;;;;;;5267885;28;20403;-65
2023/03/27 07:38:11;;;;;;;55.08;51.53;;;16.50;99.90;;;;;;5267951;28;20047;-66
2023/03/27 07:40:45;;;;;;;30.67;28.63;;;16.50;99.90;;;;;;5267840;28;20444;-62
2023/03/27 07:43:21;;;;;;;27.45;25.48;;;16.20;99.90;;;;;;5267838;28;20024;-62
2023/03/27 07:45:58;;;;;;;31.02;29.08;;;16.40;99.90;;;;;;5267836;28;20420;-62
2023/03/27 07:48:29;;;;;;;27.65;25.85;;;16.30;99.90;;;;;;5268008;28;20032;-66
2023/03/27 07:51:03;;;;;;;22.20;20.50;;;16.60;99.90;;;;;;5267851;28;20032;-62
2023/03/27 07:53:34;;;;;;;21.67;20.00;;;16.70;99.90;;;;;;5267907;28;20548;-63
2023/03/27 07:56:10;;;;;;;21.13;19.63;;;16.80;99.90;;;;;;5267799;28;20372;-62
2023/03/27 07:58:43;;;;;;;24.10;22.25;;;16.70;99.90;;;;;;5267867;28;20035;-62
2023/03/27 08:01:14;;;;;;;23.60;21.88;;;16.60;99.90;;;;;;5267642;28;20417;-66
2023/03/27 08:03:47;;;;;;;26.27;24.48;;;16.90;99.90;;;;;;5267537;28;20037;-66
2023/03/27 08:06:18;;;;;;;23.55;21.88;;;17.10;99.90;;;;;;5267589;28;20524;-66
2023/03/27 08:08:49;;;;;;;24.08;22.40;;;16.90;99.90;;;;;;5267681;28;20028;-67
2023/03/27 08:11:20;;;;;;;25.65;23.73;;;17.20;99.90;;;;;;5267368;28;20047;-65
2023/03/27 08:13:51;;;;;;;27.15;25.40;;;17.60;99.90;;;;;;5267432;28;20063;-65
2023/03/27 08:16:26;;;;;;;22.95;21.35;;;17.40;99.90;;;;;;5267224;28;20031;-65
2023/03/27 08:18:57;;;;;;;21.58;19.88;;;17.30;99.90;;;;;;5267309;28;20095;-67
2023/03/27 08:21:32;;;;;;;30.25;28.30;;;17.90;99.90;;;;;;5267325;28;20468;-63
2023/03/27 08:24:03;;;;;;;41.22;38.50;;;17.80;99.90;;;;;;5267348;28;20028;-66
2023/03/27 08:26:35;;;;;;;27.65;25.65;;;17.50;99.90;;;;;;5267352;28;20471;-66
2023/03/27 08:29:06;;;;;;;21.20;19.38;;;17.70;99.90;;;;;;5267312;28;20309;-66
2023/03/27 08:31:37;;;;;;;51.22;48.08;;;17.40;99.90;;;;;;5267115;28;20048;-67
2023/03/27 08:34:08;;;;;;;43.83;40.97;;;17.40;99.90;;;;;;5267250;28;20028;-67
2023/03/27 08:36:39;;;;;;;24.23;22.58;;;17.60;99.90;;;;;;5267287;28;20019;-67
2023/03/27 08:39:10;;;;;;;30.25;27.75;;;17.90;99.90;;;;;;5267254;28;20024;-67
2023/03/27 08:41:51;;;;;;;38.88;36.28;;;17.80;99.90;;;;;;5267144;28;20024;-65
2023/03/27 08:44:24;;;;;;;31.40;29.38;;;17.90;99.90;;;;;;5267358;28;20028;-65
2023/03/27 08:47:15;;;;;;;38.95;36.40;;;17.70;99.90;;;;;;5269874;28;20055;-67
2023/03/27 08:49:57;;;;;;;40.78;38.00;;;17.70;99.90;;;;;;5270938;28;20027;-65
2023/03/27 08:52:31;;;;;;;34.83;32.42;;;17.70;99.90;;;;;;5270907;28;20020;-66
2023/03/27 08:55:17;;;;;;;24.48;22.52;;;17.80;99.90;;;;;;5270852;28;20033;-66
2023/03/27 08:57:49;;;;;;;22.75;21.13;;;18.10;99.90;;;;;;5271235;28;20027;-67
2023/03/27 09:00:28;;;;;;;35.85;33.55;;;18.20;99.90;;;;;;5270586;28;20035;-67
2023/03/27 09:03:20;;;;;;;20.77;19.13;;;18.10;99.90;;;;;;5270700;28;20071;-67
2023/03/27 09:06:10;;;;;;;20.20;18.70;;;18.40;99.90;;;;;;5270440;28;20060;-67
2023/03/27 09:09:19;;;;;;;34.75;32.55;;;18.50;99.90;;;;;;5270798;28;20035;-67
2023/03/27 09:12:01;;;;;;;22.40;20.60;;;18.60;99.90;;;;;;5164683;28;20057;-67
2023/03/27 09:14:38;;;;;;;18.80;17.40;;;19.00;99.90;;;;;;5263138;28;20490;-67
2023/03/27 09:17:37;;;;;;;18.20;16.85;;;19.00;99.90;;;;;;5270260;28;20035;-67
2023/03/27 09:20:32;;;;;;;25.30;23.63;;;18.70;99.90;;;;;;5270258;28;20039;-66
2023/03/27 09:23:05;;;;;;;102.93;96.97;;;18.40;99.90;;;;;;5270261;28;20040;-67
2023/03/27 09:25:45;;;;;;;31.88;29.75;;;18.50;99.90;;;;;;5270241;28;20028;-67
2023/03/27 09:28:20;;;;;;;;;;;18.50;99.90;;;;;;5270758;28;20114;-68
2023/03/27 09:30:51;;;;;;;202.70;183.63;;;19.00;99.90;;;;;;5269920;28;20568;-66
2023/03/27 09:33:23;;;;;;;28.20;26.30;;;18.60;99.90;;;;;;5270178;28;20040;-67
2023/03/27 09:35:55;;;;;;;26.73;24.73;;;19.00;99.90;;;;;;5270164;28;20024;-67
2023/03/27 09:38:36;;;;;;;25.45;23.25;;;19.30;99.90;;;;;;5270039;28;20428;-66
2023/03/27 09:41:24;;;;;;;20.13;18.65;;;19.10;99.90;;;;;;5269877;28;20053;-67
2023/03/27 09:44:02;;;;;;;24.35;22.65;;;19.20;99.90;;;;;;5269754;28;20040;-67
2023/03/27 09:46:36;;;;;;;24.17;22.48;;;19.40;99.90;;;;;;5269680;28;20020;-67
2023/03/27 09:49:18;;;;;;;23.20;21.55;;;19.60;99.90;;;;;;5269638;28;20028;-67
2023/03/27 09:51:55;;;;;;;42.88;40.10;;;20.00;99.90;;;;;;5269711;28;20032;-67
2023/03/27 09:54:31;;;;;;;28.90;26.92;;;19.70;99.90;;;;;;5269635;28;20115;-66
2023/03/27 09:57:09;;;;;;;21.23;19.50;;;19.60;99.90;;;;;;5269416;28;20059;-67
2023/03/27 09:59:57;;;;;;;207.75;190.45;;;19.70;99.90;;;;;;5269607;28;20030;-67
2023/03/27 10:02:30;;;;;;;30.58;28.50;;;19.30;99.90;;;;;;5251631;28;20394;-67
2023/03/27 10:05:16;;;;;;;25.92;24.13;;;19.30;99.90;;;;;;5269422;28;20039;-67
2023/03/27 10:07:47;;;;;;;64.45;60.53;;;19.70;99.90;;;;;;5269527;28;20020;-67
2023/03/27 10:10:19;;;;;;;30.00;27.75;;;19.50;99.90;;;;;;5269494;28;20030;-68
2023/03/27 10:12:56;;;;;;;32.97;30.55;;;20.20;99.90;;;;;;5269371;28;20115;-67
2023/03/27 10:15:37;;;;;;;21.95;20.25;;;19.50;99.90;;;;;;5269194;28;20047;-65
2023/03/27 10:18:20;;;;;;;20.08;18.52;;;19.60;99.90;;;;;;5269272;28;20069;-67
2023/03/27 10:20:53;;;;;;;22.85;21.05;;;20.00;99.90;;;;;;5269115;28;20024;-67
2023/03/27 10:23:38;;;;;;;35.25;32.83;;;20.00;99.90;;;;;;5268993;28;20036;-67
2023/03/27 10:26:15;;;;;;;32.47;30.23;;;19.80;99.90;;;;;;5269057;28;20452;-67
2023/03/27 10:28:50;;;;;;;27.10;24.80;;;19.80;99.90;;;;;;5268821;28;20039;-67
2023/03/27 10:31:36;;;;;;;20.58;19.00;;;20.00;99.90;;;;;;5268713;28;20371;-67
2023/03/27 10:34:35;;;;;;;47.28;44.00;;;20.30;99.90;;;;;;5268918;28;20036;-67
2023/03/27 10:37:30;;;;;;;18.92;17.35;;;19.80;99.90;;;;;;5268779;28;20146;-67
2023/03/27 10:40:08;;;;;;;26.27;23.83;;;20.00;99.90;;;;;;5268782;28;20025;-67
2023/03/27 10:42:39;;;;;;;20.27;18.38;;;20.30;99.90;;;;;;5268521;28;20044;-67
2023/03/27 10:45:20;;;;;;;18.00;16.27;;;20.30;99.90;;;;;;5268612;28;20077;-66
2023/03/27 10:47:58;;;;;;;18.48;16.70;;;20.60;99.90;;;;;;5268599;28;20028;-67
2023/03/27 10:50:40;;;;;;;68.93;64.22;;;20.50;99.90;;;;;;5268521;28;20032;-67
2023/03/27 10:53:18;;;;;;;19.20;17.60;;;19.90;99.90;;;;;;5268305;28;20016;-67
2023/03/27 10:56:16;;;;;;;332.20;304.50;;;20.50;99.90;;;;;;5273447;28;20521;-68
2023/03/27 10:58:53;;;;;;;33.70;31.33;;;19.90;99.90;;;;;;5271460;28;20034;-67
2023/03/27 11:01:30;;;;;;;19.50;17.83;;;19.90;99.90;;;;;;5268238;28;20085;-67
2023/03/27 11:04:14;;;;;;;35.28;32.72;;;20.20;99.90;;;;;;5268158;28;20040;-66
2023/03/27 11:06:47;;;;;;;22.67;20.92;;;20.20;99.90;;;;;;5268525;28;20030;-66
2023/03/27 11:09:22;;;;;;;41.03;37.83;;;20.30;99.90;;;;;;5267586;28;20077;-67
2023/03/27 11:12:03;;;;;;;27.48;25.48;;;20.10;99.90;;;;;;5282872;28;20050;-67
2023/03/27 11:14:55;;;;;;;49.75;46.22;;;20.50;99.90;;;;;;5289275;28;20032;-67
2023/03/27 11:17:42;;;;;;;22.92;20.92;;;21.00;99.90;;;;;;5289105;28;20028;-66
2023/03/27 11:20:35;;;;;;;22.80;21.00;;;20.30;99.90;;;;;;5289266;28;20027;-66
2023/03/27 11:23:37;;;;;;;32.13;29.75;;;21.00;99.90;;;;;;5284311;28;20545;-68
2023/03/27 11:26:11;;;;;;;47.53;44.38;;;20.90;99.90;;;;;;5266464;28;20084;-63
2023/03/27 11:29:16;;;;;;;22.13;20.20;;;20.40;99.90;;;;;;5267795;28;20028;-66
2023/03/27 11:31:58;;;;;;;26.48;24.27;;;20.90;99.90;;;;;;5267899;28;20051;-67
2023/03/27 11:34:52;;;;;;;21.17;19.05;;;20.40;99.90;;;;;;5268129;28;20028;-67
2023/03/27 11:37:41;;;;;;;55.22;51.45;;;20.80;99.90;;;;;;5268029;28;20463;-66
2023/03/27 11:40:28;;;;;;;29.87;27.30;;;20.30;99.90;;;;;;5267837;28;20078;-65
2023/03/27 11:43:00;;;;;;;29.60;27.08;;;20.90;99.90;;;;;;5267724;28;20035;-66
2023/03/27 11:45:55;;;;;;;29.85;27.60;;;20.70;99.90;;;;;;5267779;28;20048;-66
2023/03/27 11:48:51;;;;;;;26.88;24.90;;;21.00;99.90;;;;;;5267883;28;20027;-65
2023/03/27 11:51:41;;;;;;;26.65;24.52;;;21.10;99.90;;;;;;5267812;28;20066;-67
2023/03/27 11:54:39;;;;;;;28.40;25.98;;;21.30;99.90;;;;;;5267706;28;20054;-67
2023/03/27 11:57:28;;;;;;;27.58;25.27;;;21.20;99.90;;;;;;5267732;28;20094;-67
2023/03/27 12:00:10;;;;;;;127.82;119.72;;;21.40;99.90;;;;;;5267858;28;20084;-66
2023/03/27 12:02:56;;;;;;;51.60;48.22;;;20.70;99.90;;;;;;5267653;28;20044;-66
2023/03/27 12:05:51;;;;;;;26.55;24.45;;;20.70;99.90;;;;;;5267587;28;20058;-67
2023/03/27 12:08:30;;;;;;;21.67;19.98;;;21.20;99.90;;;;;;5267650;28;20020;-67
2023/03/27 12:11:06;;;;;;;26.40;24.15;;;21.30;99.90;;;;;;5267650;28;20029;-67
2023/03/27 12:13:52;;;;;;;19.75;17.98;;;21.40;99.90;;;;;;5267619;28;20028;-67
2023/03/27 12:16:29;;;;;;;23.50;21.63;;;21.40;99.90;;;;;;5267422;28;20445;-67
2023/03/27 12:19:06;;;;;;;22.20;20.40;;;21.40;99.90;;;;;;5267576;28;20478;-65
2023/03/27 12:22:21;;;;;;;40.20;37.42;;;21.60;99.90;;;;;;5269731;28;20028;-66
2023/03/27 12:25:07;;;;;;;33.88;31.27;;;21.30;99.90;;;;;;5243481;28;20058;-67
2023/03/27 12:27:52;;;;;;;19.50;17.70;;;21.50;99.90;;;;;;5271483;28;20103;-67
2023/03/27 12:30:41;;;;;;;34.72;32.25;;;21.50;99.90;;;;;;5271306;28;20036;-67
2023/03/27 12:33:25;;;;;;;24.17;21.95;;;21.40;99.90;;;;;;5271331;28;20070;-67
2023/03/27 12:35:59;;;;;;;23.50;21.55;;;21.50;99.90;;;;;;5271282;28;20031;-67
2023/03/27 12:38:31;;;;;;;19.42;17.88;;;21.60;99.90;;;;;;5271360;28;20031;-67
2023/03/27 12:41:12;;;;;;;24.67;22.92;;;22.10;99.50;;;;;;5271407;28;20459;-66
2023/03/27 12:43:45;;;;;;;18.05;15.93;;;21.50;95.60;;;;;;5271062;28;20055;-64
2023/03/27 12:46:32;;;;;;;18.40;16.73;;;22.00;95.70;;;;;;5269881;28;20761;-63
2023/03/27 12:49:15;;;;;;;17.40;15.93;;;21.90;94.20;;;;;;5270768;28;20375;-67
2023/03/27 12:51:56;;;;;;;16.48;14.77;;;21.40;95.00;;;;;;5271101;28;20012;-67
2023/03/27 12:54:33;;;;;;;21.50;19.88;;;21.80;97.30;;;;;;5270963;28;20028;-67
2023/03/27 12:57:21;;;;;;;18.15;16.55;;;21.60;96.60;;;;;;5270878;28;20027;-67
2023/03/27 12:59:58;;;;;;;44.80;41.58;;;21.90;97.70;;;;;;5270761;28;20035;-67
2023/03/27 13:02:47;;;;;;;50.78;47.67;;;21.60;96.10;;;;;;5271464;28;20047;-68
2023/03/27 13:05:26;;;;;;;30.23;27.98;;;21.60;96.10;;;;;;5276554;28;20028;-67
2023/03/27 13:08:31;;;;;;;36.27;33.27;;;21.80;95.40;;;;;;5270653;28;20111;-67
2023/03/27 13:11:29;;;;;;;44.45;40.75;;;21.80;96.00;;;;;;5270569;28;20024;-67
2023/03/27 13:14:16;;;;;;;22.17;20.48;;;21.80;95.00;;;;;;5283429;28;20035;-64
2023/03/27 13:17:14;;;;;;;27.58;25.75;;;22.30;95.20;;;;;;5291407;28;20031;-64
2023/03/27 13:19:57;;;;;;;42.53;39.47;;;22.10;93.40;;;;;;5291514;28;20030;-63
2023/03/27 13:22:45;;;;;;;22.52;20.52;;;21.80;92.70;;;;;;5286341;28;20085;-67
2023/03/27 13:26:15;;;;;;;27.67;25.45;;;22.00;95.00;;;;;;5284267;28;20506;-63